Huvudsida
METAR-TAF:

METAR-TAF

Flygplatser :

Tunis, Tunisien

latitud: 36-50N, longitud: 010-14E, höjd: 3 m

Aktuellt väderrapport

Denna rapport gjordes för 33 minuter sedan, klockan 21:00 UTC
Vind 7 kt från väst/sydväst
Temperatur 15°C
Fuktighet 77%
Tryck 1019 hPa
Sikt 10 km eller mer
Spridda moln på en höjd av 2300 ft, Högtornande cumulus.

METAR: DTTA 142100Z 25007KT 9999 SCT023TCU 15/11 Q1019

Tid: 22:33 (21:33 UTC)

Väderprognos

Denna rapport gjordes för 4 timmar och 33 minuter sedan, klockan 17:00 UTC
Prognos gäller från 14 kl. 18 UTC till 15 kl. 18 UTC
Vind 14 kt från väst
Sikt 10 km eller mer
Spridda moln på en höjd av 2300 ft
Blir
från 15 kl. 00 UTC till 15 kl. 02 UTC
Vind 5 kt från sydväst

TAF: DTTA 141700Z 1418/1518 28014KT 9999 SCT023 BECMG 1500/1502 22005KT

Aktuella väderrapporter och prognoser från 4000 flygplatser (METAR- och TAF-rapporter).

De tillgängliga stationerna syns som gula och röda prickar på kartan.

För musen över prickarna för att se namnen på stationerna.

Klicka sedan för att få väderrapporter och prognoser.

För att ändra kartan: Klicka på de gröna knapparna med ett svart kors på för att zooma in; den gröna knappen med ett streck på för att zooma ut; eller på de gröna pilarna för angränsande kartor.


METAR-TAF: